createdAt,value
2017-07-23T00:01:30.924Z,4
2017-07-23T00:02:18.329Z,4
2017-07-23T00:03:18.251Z,4
2017-07-23T00:04:18.170Z,4
2017-07-23T00:05:18.111Z,4
2017-07-23T00:06:18.431Z,4
2017-07-23T00:07:17.990Z,4
2017-07-23T00:08:17.630Z,4
2017-07-23T00:09:17.591Z,4
2017-07-23T00:10:17.799Z,4
2017-07-23T00:11:17.834Z,4
2017-07-23T00:12:17.372Z,4
2017-07-23T00:13:17.692Z,4
2017-07-23T00:14:17.586Z,4
2017-07-23T00:15:17.209Z,4
2017-07-23T00:16:17.434Z,4
2017-07-23T00:17:17.068Z,4
2017-07-23T00:18:17.320Z,4
2017-07-23T00:19:16.963Z,4
2017-07-23T00:20:17.193Z,4
2017-07-23T00:21:17.133Z,4
2017-07-23T00:22:17.070Z,4
2017-07-23T00:23:16.725Z,4
2017-07-23T00:24:16.635Z,4
2017-07-23T00:25:16.791Z,4
2017-07-23T00:26:16.826Z,4
2017-07-23T00:27:16.461Z,4
2017-07-23T00:28:16.394Z,4
2017-07-23T00:29:16.695Z,4
2017-07-23T00:30:16.603Z,4
2017-07-23T00:31:16.533Z,4
2017-07-23T00:32:16.704Z,4
2017-07-23T00:33:16.401Z,4
2017-07-23T00:34:16.330Z,4
2017-07-23T00:35:16.269Z,4
2017-07-23T00:36:16.210Z,4
2017-07-23T00:37:16.179Z,4
2017-07-23T00:38:16.095Z,4
2017-07-23T00:39:16.020Z,4
2017-07-23T00:40:15.965Z,4
2017-07-23T00:41:15.909Z,4
2017-07-23T00:42:16.172Z,4
2017-07-23T00:43:15.803Z,4
2017-07-23T00:44:15.730Z,4
2017-07-23T00:45:15.665Z,4
2017-07-23T00:46:15.615Z,4
2017-07-23T00:47:15.236Z,4
2017-07-23T00:48:15.521Z,4
2017-07-23T00:49:15.408Z,4
2017-07-23T00:50:15.368Z,4
2017-07-23T00:51:15.293Z,4
2017-07-23T00:52:15.119Z,4
2017-07-23T00:53:15.163Z,4
2017-07-23T00:54:15.101Z,4
2017-07-23T00:55:15.053Z,4
2017-07-23T00:56:14.906Z,4
2017-07-23T00:57:14.931Z,4
2017-07-23T00:58:14.847Z,4
2017-07-23T00:59:14.826Z,4
2017-07-23T01:00:14.748Z,4
2017-07-23T01:01:14.709Z,4
2017-07-23T01:02:14.030Z,4
2017-07-23T01:03:14.866Z,4
2017-07-23T01:04:14.506Z,4
2017-07-23T01:05:14.428Z,4
2017-07-23T01:06:14.383Z,4
2017-07-23T01:07:14.034Z,4
2017-07-23T01:08:14.531Z,4
2017-07-23T01:09:13.608Z,4
2017-07-23T01:10:14.163Z,4
2017-07-23T01:11:14.059Z,4
2017-07-23T01:12:14.029Z,4
2017-07-23T01:13:14.074Z,4
2017-07-23T01:14:13.888Z,4
2017-07-23T01:15:13.800Z,4
2017-07-23T01:16:13.764Z,4
2017-07-23T01:17:13.830Z,4
2017-07-23T01:18:13.261Z,4
2017-07-23T01:19:13.584Z,4
2017-07-23T01:20:13.529Z,4
2017-07-23T01:21:13.446Z,4
2017-07-23T01:22:13.430Z,4
2017-07-23T01:23:13.436Z,4
2017-07-23T01:24:12.973Z,4
2017-07-23T01:25:13.223Z,4
2017-07-23T01:26:13.139Z,4
2017-07-23T01:27:13.101Z,4
2017-07-23T01:28:13.027Z,4
2017-07-23T01:29:13.017Z,4
2017-07-23T01:30:12.610Z,4
2017-07-23T01:31:12.860Z,4
2017-07-23T01:32:12.493Z,4
2017-07-23T01:33:12.722Z,4
2017-07-23T01:34:12.657Z,4
2017-07-23T01:35:12.585Z,4
2017-07-23T01:36:12.550Z,4
2017-07-23T01:37:12.521Z,4
2017-07-23T01:38:12.418Z,4
2017-07-23T01:39:12.623Z,4
2017-07-23T01:40:11.995Z,4
2017-07-23T01:41:12.234Z,4
2017-07-23T01:42:11.867Z,4
2017-07-23T01:43:12.137Z,4
2017-07-23T01:44:12.230Z,4
2017-07-23T01:45:12.175Z,4
2017-07-23T01:46:11.935Z,4
2017-07-23T01:47:11.562Z,4
2017-07-23T01:48:11.819Z,4
2017-07-23T01:49:11.772Z,4
2017-07-23T01:50:11.699Z,4
2017-07-23T01:51:11.608Z,4
2017-07-23T01:52:11.556Z,4
2017-07-23T01:53:11.473Z,4
2017-07-23T01:54:11.293Z,4
2017-07-23T01:55:11.394Z,4
2017-07-23T01:56:11.322Z,4
2017-07-23T01:57:11.253Z,4
2017-07-23T01:58:11.194Z,4
2017-07-23T01:59:11.269Z,4
2017-07-23T02:00:11.332Z,4
2017-07-23T02:01:11.001Z,4
2017-07-23T02:02:10.955Z,4
2017-07-23T02:03:10.905Z,4
2017-07-23T02:04:10.548Z,4
2017-07-23T02:05:10.765Z,4
2017-07-23T02:06:10.700Z,4
2017-07-23T02:07:10.044Z,4
2017-07-23T02:08:09.667Z,4
2017-07-23T02:09:10.229Z,4
2017-07-23T02:10:09.859Z,4
2017-07-23T02:11:10.076Z,4
2017-07-23T02:12:10.365Z,4
2017-07-23T02:13:09.954Z,4
2017-07-23T02:14:10.209Z,4
2017-07-23T02:15:09.839Z,4
2017-07-23T02:16:09.772Z,4
2017-07-23T02:17:10.023Z,4
2017-07-23T02:18:09.962Z,4
2017-07-23T02:19:09.889Z,4
2017-07-23T02:20:09.856Z,4
2017-07-23T02:21:09.770Z,4
2017-07-23T02:22:09.441Z,4
2017-07-23T02:23:09.683Z,4
2017-07-23T02:24:09.298Z,4
2017-07-23T02:25:09.548Z,4
2017-07-23T02:26:09.474Z,4
2017-07-23T02:27:09.391Z,4
2017-07-23T02:28:09.053Z,4
2017-07-23T02:29:08.994Z,4
2017-07-23T02:30:08.917Z,4
2017-07-23T02:31:08.865Z,4
2017-07-23T02:32:09.120Z,4
2017-07-23T02:33:09.073Z,4
2017-07-23T02:34:08.673Z,4
2017-07-23T02:35:08.927Z,4
2017-07-23T02:36:08.886Z,4
2017-07-23T02:37:08.863Z,4
2017-07-23T02:38:08.749Z,4
2017-07-23T02:39:08.676Z,4
2017-07-23T02:40:08.324Z,4
2017-07-23T02:41:08.271Z,4
2017-07-23T02:42:08.504Z,4
2017-07-23T02:43:08.419Z,4
2017-07-23T02:44:08.074Z,4
2017-07-23T02:45:08.305Z,4
2017-07-23T02:46:08.295Z,4
2017-07-23T02:47:08.188Z,4
2017-07-23T02:48:08.164Z,4
2017-07-23T02:49:07.762Z,4
2017-07-23T02:50:08.108Z,4
2017-07-23T02:51:07.662Z,4
2017-07-23T02:52:07.896Z,4
2017-07-23T02:53:07.508Z,4
2017-07-23T02:54:07.766Z,4
2017-07-23T02:55:07.395Z,4
2017-07-23T02:56:07.635Z,4
2017-07-23T02:57:07.261Z,4
2017-07-23T02:58:07.522Z,4
2017-07-23T02:59:07.447Z,4
2017-07-23T03:00:07.415Z,4
2017-07-23T03:01:07.410Z,4
2017-07-23T03:02:07.262Z,4
2017-07-23T03:03:07.200Z,4
2017-07-23T03:04:07.249Z,4
2017-07-23T03:05:06.769Z,4
2017-07-23T03:06:06.724Z,4
2017-07-23T03:07:06.954Z,4
2017-07-23T03:08:06.592Z,4
2017-07-23T03:09:06.842Z,4
2017-07-23T03:10:06.822Z,8
2017-07-23T03:11:06.693Z,8
2017-07-23T03:12:06.670Z,8
2017-07-23T03:13:06.576Z,4
2017-07-23T03:14:06.531Z,4
2017-07-23T03:15:06.467Z,4
2017-07-23T03:16:06.130Z,4
2017-07-23T03:17:06.359Z,4
2017-07-23T03:18:05.957Z,4
2017-07-23T03:19:06.265Z,4
2017-07-23T03:20:06.246Z,4
2017-07-23T03:21:05.878Z,4
2017-07-23T03:22:05.755Z,4
2017-07-23T03:23:05.991Z,4
2017-07-23T03:24:05.920Z,4
2017-07-23T03:25:05.575Z,4
2017-07-23T03:26:05.540Z,4
2017-07-23T03:27:05.437Z,4
2017-07-23T03:28:05.670Z,8
2017-07-23T03:29:05.620Z,8
2017-07-23T03:30:05.248Z,8
2017-07-23T03:31:05.483Z,8
2017-07-23T03:32:05.441Z,8
2017-07-23T03:33:05.379Z,8
2017-07-23T03:34:05.318Z,8
2017-07-23T03:35:05.268Z,8
2017-07-23T03:36:05.197Z,8
2017-07-23T03:37:05.127Z,8
2017-07-23T03:38:05.032Z,4
2017-07-23T03:39:04.674Z,4
2017-07-23T03:40:04.635Z,8
2017-07-23T03:41:04.857Z,8
2017-07-23T03:42:04.808Z,8
2017-07-23T03:43:04.764Z,8
2017-07-23T03:44:04.702Z,8
2017-07-23T03:45:04.635Z,8
2017-07-23T03:46:04.582Z,8
2017-07-23T03:47:04.499Z,8
2017-07-23T03:48:04.440Z,8
2017-07-23T03:49:04.425Z,12
2017-07-23T03:50:04.322Z,8
2017-07-23T03:51:04.279Z,8
2017-07-23T03:52:04.208Z,8
2017-07-23T03:53:04.161Z,12
2017-07-23T03:54:04.065Z,8
2017-07-23T03:55:04.013Z,8
2017-07-23T03:56:03.953Z,8
2017-07-23T03:57:03.875Z,8
2017-07-23T03:58:03.819Z,8
2017-07-23T03:59:03.804Z,12
2017-07-23T04:00:03.911Z,12
2017-07-23T04:01:03.645Z,12
2017-07-23T04:02:10.575Z,8
2017-07-23T04:03:03.540Z,8
2017-07-23T04:04:03.471Z,8
2017-07-23T04:05:03.377Z,12
2017-07-23T04:06:03.315Z,8
2017-07-23T04:07:02.978Z,8
2017-07-23T04:08:02.929Z,8
2017-07-23T04:09:03.169Z,12
2017-07-23T04:10:03.125Z,12
2017-07-23T04:11:03.075Z,12
2017-07-23T04:12:02.959Z,16
2017-07-23T04:13:02.625Z,16
2017-07-23T04:14:02.848Z,12
2017-07-23T04:15:02.784Z,16
2017-07-23T04:16:02.425Z,16
2017-07-23T04:17:02.659Z,12
2017-07-23T04:18:02.611Z,12
2017-07-23T04:19:02.544Z,16
2017-07-23T04:20:02.170Z,16
2017-07-23T04:21:02.430Z,16
2017-07-23T04:22:02.380Z,12
2017-07-23T04:23:02.315Z,12
2017-07-23T04:24:01.917Z,16
2017-07-23T04:25:02.196Z,16
2017-07-23T04:26:02.112Z,12
2017-07-23T04:27:01.759Z,12
2017-07-23T04:28:02.027Z,12
2017-07-23T04:29:01.636Z,12
2017-07-23T04:30:01.890Z,12
2017-07-23T04:31:01.826Z,12
2017-07-23T04:32:01.772Z,12
2017-07-23T04:33:01.724Z,12
2017-07-23T04:34:01.642Z,12
2017-07-23T04:35:01.679Z,12
2017-07-23T04:36:01.500Z,12
2017-07-23T04:37:01.438Z,12
2017-07-23T04:38:01.398Z,16
2017-07-23T04:39:01.302Z,16
2017-07-23T04:40:01.253Z,16
2017-07-23T04:41:01.218Z,16
2017-07-23T04:42:01.145Z,16
2017-07-23T04:43:01.056Z,16
2017-07-23T04:44:01.003Z,16
2017-07-23T04:45:00.944Z,16
2017-07-23T04:46:01.119Z,20
2017-07-23T04:47:00.824Z,16
2017-07-23T04:48:00.764Z,20
2017-07-23T04:49:00.692Z,24
2017-07-23T04:50:00.047Z,28
2017-07-23T04:51:00.569Z,28
2017-07-23T04:52:00.505Z,28
2017-07-23T04:53:00.166Z,28
2017-07-23T04:54:00.373Z,28
2017-07-23T04:55:00.303Z,28
2017-07-23T04:56:00.294Z,32
2017-07-23T04:57:00.205Z,28
2017-07-23T04:58:00.159Z,24
2017-07-23T04:59:00.110Z,28
2017-07-23T05:00:00.075Z,24
2017-07-23T05:01:00.053Z,24
2017-07-23T05:01:59.904Z,28
2017-07-23T05:02:59.825Z,32
2017-07-23T05:03:59.782Z,28
2017-07-23T05:04:59.713Z,28
2017-07-23T05:05:59.665Z,28
2017-07-23T05:06:59.807Z,28
2017-07-23T05:07:59.720Z,28
2017-07-23T05:08:59.165Z,24
2017-07-23T05:09:59.410Z,28
2017-07-23T05:10:59.447Z,28
2017-07-23T05:11:59.313Z,32
2017-07-23T05:12:59.231Z,28
2017-07-23T05:13:59.150Z,32
2017-07-23T05:14:58.498Z,36
2017-07-23T05:15:58.751Z,32
2017-07-23T05:16:59.094Z,28
2017-07-23T05:17:58.934Z,32
2017-07-23T05:18:58.861Z,36
2017-07-23T05:19:58.777Z,32
2017-07-23T05:20:58.761Z,36
2017-07-23T05:21:58.383Z,36
2017-07-23T05:22:58.610Z,40
2017-07-23T05:23:58.245Z,40
2017-07-23T05:24:58.497Z,44
2017-07-23T05:25:58.104Z,44
2017-07-23T05:26:58.349Z,48
2017-07-23T05:27:58.306Z,56
2017-07-23T05:28:57.925Z,72
2017-07-23T05:29:57.879Z,56
2017-07-23T05:30:58.130Z,48
2017-07-23T05:31:58.289Z,48
2017-07-23T05:32:57.981Z,52
2017-07-23T05:33:58.005Z,48
2017-07-23T05:34:57.854Z,40
2017-07-23T05:35:57.833Z,44
2017-07-23T05:36:57.755Z,56
2017-07-23T05:37:57.674Z,60
2017-07-23T05:38:57.314Z,60
2017-07-23T05:39:57.553Z,56
2017-07-23T05:40:57.529Z,56
2017-07-23T05:41:57.445Z,56
2017-07-23T05:42:57.091Z,68
2017-07-23T05:43:57.310Z,72
2017-07-23T05:44:57.276Z,64
2017-07-23T05:45:57.184Z,72
2017-07-23T05:46:57.139Z,64
2017-07-23T05:47:56.772Z,64
2017-07-23T05:48:57.024Z,72
2017-07-23T05:49:56.673Z,76
2017-07-23T05:50:56.892Z,80
2017-07-23T05:51:56.818Z,88
2017-07-23T05:52:56.756Z,108
2017-07-23T05:53:56.709Z,112
2017-07-23T05:54:56.675Z,116
2017-07-23T05:55:56.278Z,152
2017-07-23T05:56:56.549Z,132
2017-07-23T05:57:56.496Z,124
2017-07-23T05:58:56.389Z,116
2017-07-23T05:59:56.367Z,112
2017-07-23T06:00:56.273Z,124
2017-07-23T06:01:56.217Z,104
2017-07-23T06:02:56.580Z,116
2017-07-23T06:03:55.786Z,132
2017-07-23T06:04:56.011Z,112
2017-07-23T06:05:55.684Z,84
2017-07-23T06:06:55.604Z,32
2017-07-23T06:07:55.541Z,12
2017-07-23T06:08:55.482Z,4
2017-07-23T06:09:55.726Z,4
2017-07-23T06:10:55.665Z,12
2017-07-23T06:11:55.610Z,20
2017-07-23T06:12:55.577Z,28
2017-07-23T06:13:55.482Z,20
2017-07-23T06:14:55.421Z,12
2017-07-23T06:15:55.357Z,8
2017-07-23T06:16:55.312Z,8
2017-07-23T06:17:54.929Z,4
2017-07-23T06:18:55.178Z,8
2017-07-23T06:19:54.811Z,8
2017-07-23T06:20:55.041Z,8
2017-07-23T06:21:54.691Z,8
2017-07-23T06:22:54.942Z,8
2017-07-23T06:23:54.585Z,16
2017-07-23T06:24:54.837Z,16
2017-07-23T06:25:54.450Z,16
2017-07-23T06:26:54.684Z,12
2017-07-23T06:27:54.633Z,16
2017-07-23T06:28:54.568Z,16
2017-07-23T06:29:54.723Z,20
2017-07-23T06:30:54.560Z,20
2017-07-23T06:31:54.366Z,12
2017-07-23T06:32:54.319Z,16
2017-07-23T06:33:54.252Z,8
2017-07-23T06:34:54.195Z,8
2017-07-23T06:35:54.099Z,4
2017-07-23T06:36:53.776Z,4
2017-07-23T06:37:54.016Z,4
2017-07-23T06:38:53.956Z,8
2017-07-23T06:39:53.884Z,8
2017-07-23T06:40:53.850Z,8
2017-07-23T06:41:53.456Z,8
2017-07-23T06:42:53.701Z,8
2017-07-23T06:43:53.648Z,8
2017-07-23T06:44:53.588Z,8
2017-07-23T06:45:53.533Z,8
2017-07-23T06:46:53.496Z,8
2017-07-23T06:47:53.388Z,8
2017-07-23T06:48:53.549Z,8
2017-07-23T06:49:53.247Z,8
2017-07-23T06:50:53.183Z,8
2017-07-23T06:51:53.156Z,8
2017-07-23T06:52:53.070Z,8
2017-07-23T06:53:53.028Z,8
2017-07-23T06:54:53.182Z,8
2017-07-23T06:55:52.925Z,8
2017-07-23T06:56:52.855Z,8
2017-07-23T06:57:52.791Z,8
2017-07-23T06:58:52.716Z,8
2017-07-23T06:59:52.664Z,8
2017-07-23T07:00:52.310Z,8
2017-07-23T07:01:52.536Z,8
2017-07-23T07:02:52.633Z,8
2017-07-23T07:03:52.399Z,8
2017-07-23T07:04:52.373Z,8
2017-07-23T07:05:52.308Z,8
2017-07-23T07:06:52.227Z,8
2017-07-23T07:07:52.175Z,8
2017-07-23T07:08:52.125Z,8
2017-07-23T07:09:52.038Z,8
2017-07-23T07:10:51.970Z,8
2017-07-23T07:11:51.626Z,12
2017-07-23T07:12:51.868Z,12
2017-07-23T07:13:51.795Z,12
2017-07-23T07:14:51.709Z,8
2017-07-23T07:15:51.669Z,12
2017-07-23T07:16:51.632Z,12
2017-07-23T07:17:51.543Z,12
2017-07-23T07:18:51.189Z,16
2017-07-23T07:19:51.402Z,12
2017-07-23T07:21:06.093Z,16
2017-07-23T07:21:51.306Z,16
2017-07-23T07:22:51.251Z,16
2017-07-23T07:23:51.196Z,16
2017-07-23T07:24:51.116Z,12
2017-07-23T07:25:51.046Z,12
2017-07-23T07:26:50.983Z,16
2017-07-23T07:27:50.935Z,16
2017-07-23T07:28:50.878Z,16
2017-07-23T07:29:50.800Z,16
2017-07-23T07:30:50.480Z,16
2017-07-23T07:31:50.706Z,16
2017-07-23T07:32:50.628Z,16
2017-07-23T07:33:50.579Z,20
2017-07-23T07:34:50.707Z,16
2017-07-23T07:35:50.482Z,16
2017-07-23T07:36:50.416Z,20
2017-07-23T07:37:50.347Z,20
2017-07-23T07:38:50.471Z,24
2017-07-23T07:39:50.221Z,24
2017-07-23T07:40:50.145Z,28
2017-07-23T07:41:50.292Z,24
2017-07-23T07:42:49.723Z,28
2017-07-23T07:43:49.981Z,28
2017-07-23T07:44:49.579Z,28
2017-07-23T07:45:49.834Z,32
2017-07-23T07:46:49.179Z,28
2017-07-23T07:47:49.430Z,28
2017-07-23T07:48:49.632Z,28
2017-07-23T07:49:49.613Z,32
2017-07-23T07:50:49.223Z,32
2017-07-23T07:51:49.461Z,32
2017-07-23T07:52:49.429Z,36
2017-07-23T07:53:49.344Z,36
2017-07-23T07:54:49.266Z,40
2017-07-23T07:55:48.927Z,40
2017-07-23T07:56:48.849Z,40
2017-07-23T07:57:49.109Z,40
2017-07-23T07:58:49.035Z,40
2017-07-23T07:59:48.992Z,40
2017-07-23T08:00:49.101Z,40
2017-07-23T08:01:49.228Z,40
2017-07-23T08:02:53.249Z,40
2017-07-23T08:03:48.719Z,40
2017-07-23T08:04:48.711Z,40
2017-07-23T08:05:48.314Z,36
2017-07-23T08:06:48.256Z,36
2017-07-23T08:07:48.385Z,36
2017-07-23T08:08:48.123Z,36
2017-07-23T08:09:48.052Z,40
2017-07-23T08:10:48.009Z,40
2017-07-23T08:11:47.932Z,36
2017-07-23T08:12:47.888Z,36
2017-07-23T08:13:48.105Z,44
2017-07-23T08:14:48.074Z,44
2017-07-23T08:15:47.709Z,44
2017-07-23T08:16:47.637Z,48
2017-07-23T08:17:47.258Z,48
2017-07-23T08:18:47.499Z,48
2017-07-23T08:19:47.730Z,52
2017-07-23T08:20:47.385Z,52
2017-07-23T08:21:47.364Z,52
2017-07-23T08:22:47.584Z,52
2017-07-23T08:23:47.509Z,52
2017-07-23T08:24:47.466Z,52
2017-07-23T08:25:47.056Z,56
2017-07-23T08:26:47.037Z,56
2017-07-23T08:27:46.681Z,60
2017-07-23T08:28:46.935Z,60
2017-07-23T08:29:47.140Z,64
2017-07-23T08:30:47.080Z,72
2017-07-23T08:31:46.712Z,68
2017-07-23T08:32:46.661Z,72
2017-07-23T08:33:46.909Z,72
2017-07-23T08:34:46.812Z,76
2017-07-23T08:35:46.770Z,80
2017-07-23T08:36:46.708Z,80
2017-07-23T08:37:46.346Z,76
2017-07-23T08:38:46.578Z,76
2017-07-23T08:39:46.540Z,76
2017-07-23T08:40:46.460Z,64
2017-07-23T08:41:46.393Z,60
2017-07-23T08:42:46.046Z,60
2017-07-23T08:43:45.968Z,60
2017-07-23T08:44:46.216Z,64
2017-07-23T08:45:46.177Z,64
2017-07-23T08:46:46.075Z,68
2017-07-23T08:47:46.035Z,72
2017-07-23T08:48:45.970Z,72
2017-07-23T08:49:45.588Z,84
2017-07-23T08:50:45.876Z,84
2017-07-23T08:51:45.749Z,88
2017-07-23T08:52:45.714Z,96
2017-07-23T08:53:45.647Z,96
2017-07-23T08:54:45.285Z,84
2017-07-23T08:55:45.255Z,80
2017-07-23T08:56:45.247Z,80
2017-07-23T08:57:45.092Z,76
2017-07-23T08:58:45.356Z,80
2017-07-23T08:59:45.309Z,80
2017-07-23T09:00:44.935Z,80
2017-07-23T09:01:44.571Z,80
2017-07-23T09:02:56.517Z,84
2017-07-23T09:03:45.053Z,92
2017-07-23T09:04:44.995Z,104
2017-07-23T09:05:44.310Z,192
2017-07-23T09:06:44.846Z,124
2017-07-23T09:07:44.803Z,132
2017-07-23T09:08:44.739Z,144
2017-07-23T09:09:44.393Z,132
2017-07-23T09:10:44.624Z,100
2017-07-23T09:11:43.952Z,92
2017-07-23T09:12:44.486Z,132
2017-07-23T09:13:44.649Z,104
2017-07-23T09:14:44.365Z,88
2017-07-23T09:15:44.291Z,92
2017-07-23T09:16:43.924Z,100
2017-07-23T09:17:43.877Z,100
2017-07-23T09:18:44.178Z,104
2017-07-23T09:19:44.047Z,88
2017-07-23T09:20:43.699Z,84
2017-07-23T09:21:43.608Z,88
2017-07-23T09:22:43.896Z,80
2017-07-23T09:23:43.808Z,92
2017-07-23T09:24:43.765Z,92
2017-07-23T09:25:43.677Z,108
2017-07-23T09:26:43.830Z,148
2017-07-23T09:27:43.559Z,108
2017-07-23T09:28:43.484Z,108
2017-07-23T09:29:43.447Z,100
2017-07-23T09:30:43.360Z,84
2017-07-23T09:31:43.312Z,76
2017-07-23T09:32:42.960Z,72
2017-07-23T09:33:42.913Z,80
2017-07-23T09:34:42.532Z,80
2017-07-23T09:35:43.076Z,68
2017-07-23T09:36:42.727Z,48
2017-07-23T09:37:42.929Z,32
2017-07-23T09:38:42.917Z,40
2017-07-23T09:39:42.962Z,72
2017-07-23T09:40:42.804Z,108
2017-07-23T09:41:42.728Z,104
2017-07-23T09:42:42.654Z,84
2017-07-23T09:43:42.610Z,88
2017-07-23T09:44:42.218Z,116
2017-07-23T09:45:41.869Z,76
2017-07-23T09:46:42.403Z,64
2017-07-23T09:47:42.358Z,52
2017-07-23T09:48:42.297Z,40
2017-07-23T09:49:41.938Z,36
2017-07-23T09:50:41.551Z,40
2017-07-23T09:51:42.075Z,36
2017-07-23T09:52:42.025Z,32
2017-07-23T09:53:41.998Z,32
2017-07-23T09:54:41.917Z,36
2017-07-23T09:55:41.824Z,32
2017-07-23T09:56:42.173Z,32
2017-07-23T09:57:41.443Z,32
2017-07-23T09:58:41.656Z,32
2017-07-23T09:59:41.637Z,32
2017-07-23T10:00:41.527Z,28
2017-07-23T10:01:41.189Z,32
2017-07-23T10:02:41.490Z,44
2017-07-23T10:03:41.574Z,48
2017-07-23T10:04:41.309Z,60
2017-07-23T10:05:40.933Z,72
2017-07-23T10:06:41.170Z,80
2017-07-23T10:07:41.107Z,80
2017-07-23T10:08:41.046Z,88
2017-07-23T10:09:41.025Z,96
2017-07-23T10:10:40.940Z,100
2017-07-23T10:11:40.856Z,112
2017-07-23T10:12:40.825Z,116
2017-07-23T10:13:40.751Z,124
2017-07-23T10:14:40.577Z,128
2017-07-23T10:15:40.646Z,136
2017-07-23T10:16:40.567Z,132
2017-07-23T10:17:40.501Z,136
2017-07-23T10:18:40.470Z,152
2017-07-23T10:19:40.386Z,148
2017-07-23T10:20:40.301Z,144
2017-07-23T10:21:40.260Z,144
2017-07-23T10:22:39.890Z,152
2017-07-23T10:23:39.850Z,156
2017-07-23T10:24:39.489Z,104
2017-07-23T10:25:39.697Z,100
2017-07-23T10:26:39.651Z,136
2017-07-23T10:27:39.587Z,108
2017-07-23T10:28:39.526Z,84
2017-07-23T10:29:39.777Z,68
2017-07-23T10:30:39.091Z,68
2017-07-23T10:31:39.328Z,68
2017-07-23T10:32:39.647Z,64
2017-07-23T10:33:39.204Z,68
2017-07-23T10:34:39.499Z,64
2017-07-23T10:35:39.380Z,60
2017-07-23T10:36:39.348Z,52
2017-07-23T10:37:39.284Z,80
2017-07-23T10:38:39.239Z,124
2017-07-23T10:39:39.174Z,164
2017-07-23T10:40:39.094Z,140
2017-07-23T10:41:39.053Z,252
2017-07-23T10:42:38.683Z,312
2017-07-23T10:43:38.603Z,360
2017-07-23T10:44:38.834Z,268
2017-07-23T10:45:38.697Z,120
2017-07-23T10:46:38.414Z,128
2017-07-23T10:47:38.657Z,116
2017-07-23T10:48:38.597Z,100
2017-07-23T10:49:38.580Z,100
2017-07-23T10:50:38.697Z,172
2017-07-23T10:51:38.418Z,216
2017-07-23T10:52:38.373Z,240
2017-07-23T10:53:38.337Z,180
2017-07-23T10:54:38.263Z,108
2017-07-23T10:55:38.582Z,196
2017-07-23T10:56:37.797Z,128
2017-07-23T10:57:38.061Z,96
2017-07-23T10:58:37.989Z,300
2017-07-23T10:59:37.921Z,124
2017-07-23T11:00:37.692Z,268
2017-07-23T11:01:38.093Z,336
2017-07-23T11:02:37.448Z,340
2017-07-23T11:03:38.112Z,136
2017-07-23T11:04:37.639Z,272
2017-07-23T11:05:36.955Z,208
2017-07-23T11:06:37.217Z,220
2017-07-23T11:07:37.429Z,100
2017-07-23T11:08:37.380Z,100
2017-07-23T11:09:37.338Z,84
2017-07-23T11:10:37.250Z,72
2017-07-23T11:11:36.880Z,88
2017-07-23T11:12:37.115Z,80
2017-07-23T11:13:36.772Z,80
2017-07-23T11:14:36.999Z,80
2017-07-23T11:15:36.952Z,80
2017-07-23T11:16:36.873Z,80
2017-07-23T11:17:36.872Z,80
2017-07-23T11:18:36.775Z,76
2017-07-23T11:19:36.717Z,76
2017-07-23T11:20:36.653Z,92
2017-07-23T11:21:36.580Z,100
2017-07-23T11:22:36.519Z,112
2017-07-23T11:23:36.464Z,112
2017-07-23T11:24:36.416Z,104
2017-07-23T11:25:35.739Z,104
2017-07-23T11:26:36.280Z,96
2017-07-23T11:27:35.921Z,96
2017-07-23T11:28:36.146Z,96
2017-07-23T11:29:36.269Z,88
2017-07-23T11:30:36.029Z,84
2017-07-23T11:31:35.970Z,80
2017-07-23T11:32:35.613Z,76
2017-07-23T11:33:35.552Z,76
2017-07-23T11:34:35.782Z,76
2017-07-23T11:35:35.725Z,72
2017-07-23T11:36:35.657Z,72
2017-07-23T11:37:35.301Z,76
2017-07-23T11:38:35.047Z,80
2017-07-23T11:39:35.453Z,80
2017-07-23T11:40:35.411Z,88
2017-07-23T11:41:35.356Z,100
2017-07-23T11:42:35.338Z,112
2017-07-23T11:43:35.128Z,104
2017-07-23T11:44:35.175Z,96
2017-07-23T11:45:35.113Z,112
2017-07-23T11:46:35.044Z,92
2017-07-23T11:47:34.684Z,92
2017-07-23T11:48:34.949Z,88
2017-07-23T11:49:34.873Z,92
2017-07-23T11:50:34.833Z,96
2017-07-23T11:51:34.782Z,100
2017-07-23T11:52:34.375Z,96
2017-07-23T11:53:34.605Z,92
2017-07-23T11:54:34.242Z,92
2017-07-23T11:55:34.501Z,96
2017-07-23T11:56:34.467Z,88
2017-07-23T11:57:34.382Z,84
2017-07-23T11:58:34.307Z,76
2017-07-23T11:59:34.249Z,76
2017-07-23T12:00:34.207Z,72
2017-07-23T12:01:33.525Z,68
2017-07-23T12:02:34.065Z,64
2017-07-23T12:03:33.874Z,60
2017-07-23T12:04:34.328Z,56
2017-07-23T12:05:33.920Z,60
2017-07-23T12:06:33.832Z,64
2017-07-23T12:07:33.483Z,68
2017-07-23T12:08:33.394Z,92
2017-07-23T12:09:33.655Z,112
2017-07-23T12:10:33.572Z,96
2017-07-23T12:11:33.504Z,104
2017-07-23T12:12:33.927Z,140
2017-07-23T12:13:33.102Z,168
2017-07-23T12:14:33.048Z,116
2017-07-23T12:15:33.272Z,140
2017-07-23T12:16:33.246Z,144
2017-07-23T12:17:33.143Z,108
2017-07-23T12:18:33.088Z,100
2017-07-23T12:19:33.038Z,144
2017-07-23T12:20:32.967Z,92
2017-07-23T12:21:32.916Z,104
2017-07-23T12:22:32.823Z,84
2017-07-23T12:23:32.680Z,84
2017-07-23T12:24:32.426Z,108
2017-07-23T12:25:32.353Z,112
2017-07-23T12:26:32.641Z,116
2017-07-23T12:27:32.538Z,128
2017-07-23T12:28:32.451Z,128
2017-07-23T12:29:32.437Z,140
2017-07-23T12:30:32.356Z,168
2017-07-23T12:31:32.285Z,176
2017-07-23T12:32:31.933Z,92
2017-07-23T12:33:32.384Z,96
2017-07-23T12:34:32.323Z,76
2017-07-23T12:35:31.743Z,68
2017-07-23T12:36:31.689Z,64
2017-07-23T12:37:31.662Z,124
2017-07-23T12:38:31.851Z,132
2017-07-23T12:39:31.805Z,136
2017-07-23T12:40:31.718Z,148
2017-07-23T12:41:31.694Z,136
2017-07-23T12:42:31.617Z,124
2017-07-23T12:43:31.615Z,140
2017-07-23T12:44:31.524Z,144
2017-07-23T12:45:31.456Z,172
2017-07-23T12:46:31.378Z,172
2017-07-23T12:47:30.995Z,176
2017-07-23T12:48:31.254Z,172
2017-07-23T12:49:31.392Z,160
2017-07-23T12:50:31.139Z,88
2017-07-23T12:51:30.784Z,88
2017-07-23T12:52:30.688Z,152
2017-07-23T12:53:30.931Z,148
2017-07-23T12:54:31.080Z,140
2017-07-23T12:55:30.843Z,140
2017-07-23T12:56:30.447Z,124
2017-07-23T12:57:30.700Z,128
2017-07-23T12:58:30.048Z,152
2017-07-23T12:59:30.574Z,144
2017-07-23T13:00:30.495Z,160
2017-07-23T13:01:30.683Z,152
2017-07-23T13:02:30.605Z,136
2017-07-23T13:03:40.181Z,80
2017-07-23T13:04:29.983Z,100
2017-07-23T13:05:30.216Z,168
2017-07-23T13:06:29.848Z,176
2017-07-23T13:07:29.792Z,140
2017-07-23T13:08:30.039Z,144
2017-07-23T13:09:29.663Z,164
2017-07-23T13:10:29.905Z,152
2017-07-23T13:11:29.545Z,172
2017-07-23T13:12:29.995Z,204
2017-07-23T13:13:29.718Z,176
2017-07-23T13:14:29.866Z,168
2017-07-23T13:15:29.624Z,116
2017-07-23T13:16:29.564Z,80
2017-07-23T13:17:28.912Z,240
2017-07-23T13:18:29.434Z,240
2017-07-23T13:19:29.044Z,228
2017-07-23T13:20:29.287Z,216
2017-07-23T13:21:29.278Z,212
2017-07-23T13:22:29.179Z,220
2017-07-23T13:23:29.125Z,212
2017-07-23T13:24:28.759Z,200
2017-07-23T13:25:28.988Z,212
2017-07-23T13:26:28.622Z,220
2017-07-23T13:27:28.539Z,200
2017-07-23T13:28:28.800Z,196
2017-07-23T13:29:28.454Z,188
2017-07-23T13:30:28.708Z,208
2017-07-23T13:31:28.618Z,232
2017-07-23T13:32:28.276Z,224
2017-07-23T13:33:28.485Z,224
2017-07-23T13:34:28.142Z,120
2017-07-23T13:35:28.389Z,208
2017-07-23T13:36:28.011Z,204
2017-07-23T13:37:27.649Z,76
2017-07-23T13:38:28.190Z,64
2017-07-23T13:39:28.741Z,56
2017-07-23T13:40:28.072Z,60
2017-07-23T13:41:28.000Z,88
2017-07-23T13:42:27.983Z,68
2017-07-23T13:43:27.896Z,72
2017-07-23T13:44:27.819Z,60
2017-07-23T13:45:27.151Z,52
2017-07-23T13:46:27.708Z,48
2017-07-23T13:47:27.830Z,48
2017-07-23T13:48:27.590Z,44
2017-07-23T13:49:27.537Z,40
2017-07-23T13:50:27.452Z,36
2017-07-23T13:51:27.401Z,32
2017-07-23T13:52:27.353Z,32
2017-07-23T13:53:27.005Z,28
2017-07-23T13:54:27.222Z,28
2017-07-23T13:55:27.590Z,32
2017-07-23T13:56:26.485Z,64
2017-07-23T13:57:26.770Z,80
2017-07-23T13:58:27.021Z,76
2017-07-23T13:59:26.956Z,80
2017-07-23T14:00:26.862Z,68
2017-07-23T14:01:26.996Z,68
2017-07-23T14:02:26.736Z,80
2017-07-23T14:03:26.575Z,132
2017-07-23T14:04:26.516Z,152
2017-07-23T14:05:25.929Z,172
2017-07-23T14:06:26.707Z,164
2017-07-23T14:07:26.628Z,148
2017-07-23T14:08:26.392Z,152
2017-07-23T14:09:26.544Z,128
2017-07-23T14:10:25.933Z,104
2017-07-23T14:11:26.169Z,76
2017-07-23T14:12:26.331Z,68
2017-07-23T14:13:26.071Z,76
2017-07-23T14:14:26.026Z,72
2017-07-23T14:15:25.922Z,112
2017-07-23T14:16:25.882Z,108
2017-07-23T14:17:25.994Z,92
2017-07-23T14:18:25.743Z,88
2017-07-23T14:19:25.673Z,116